Boo Sonier — WDG3281 — position and weather

sailwx.info

Track history (hours):
 
Tides and Currents Weather Stations Pressure Air Temp Water Temp Dewpoint Dewpoint Depression Visibility Wind Speed Wind Dir Waves Ship Positions

Boo Sonier

Owner: LeBeouf Bros. Towing, LLC, Houma, LA. More information available from US FCC via Universal Licensing System and Coast Guard Vessel Documentation Center.

Last reported at 2016-May-04 11:32 UTC. Time now 2016-May-04 11:37 UTC.
Position N 29°34' W 090°36'.

Length 21 m.

Type: Tug. MMSI: 367524420.

Date/timePositionNaut miles runAvg speedWind from/ knotsBaromVisibWave heightAir tempDewpointWater temp
2016-May-04 11:32N 29°34' W 090°36'0 0.0
2016-May-04 10:32N 29°34' W 090°36'0 0.0
2016-May-04 09:33N 29°34' W 090°36'1 0.7
2016-May-04 08:33N 29°34' W 090°35'27 5.3
2016-May-04 03:31N 29°46' W 090°07'5 4.8
2016-May-04 02:33N 29°49' W 090°04'6 5.9
2016-May-04 01:33N 29°54' W 089°60'2 1.9
2016-May-04 00:33N 29°55' W 089°58'0 0.1
2016-May-03 23:31N 29°55' W 089°58'0 0.0
2016-May-03 22:31N 29°55' W 089°58'0 0.0
2016-May-03 21:25N 29°55' W 089°58'0 0.4
2016-May-03 20:33N 29°55' W 089°58'4 4.1
2016-May-03 19:30N 29°58' W 090°02'1 0.7
2016-May-03 18:31N 29°59' W 090°01'1 1.0
2016-May-03 17:34N 29°60' W 090°01'2 0.7
2016-May-03 15:24N 29°60' W 089°59'0 0.0
2016-May-03 14:24N 29°60' W 089°59'0 0.0
2016-May-03 08:27N 29°60' W 089°59'0 0.0
2016-May-03 06:33N 29°60' W 089°59'  
2016-Apr-27 07:19N 30°00' W 089°56'4 4.7
2016-Apr-27 06:31N 29°60' W 090°00'1 1.3
2016-Apr-27 05:33N 29°59' W 090°01'1 1.2
2016-Apr-27 04:31N 29°58' W 090°02'1 0.6
2016-Apr-27 03:32N 29°57' W 090°01'1 1.4
2016-Apr-27 02:30N 29°56' W 090°00'0 0.0
2016-Apr-27 01:30N 29°56' W 090°00'0 0.0
2016-Apr-27 00:24N 29°56' W 090°00'0 0.0
2016-Apr-26 23:30N 29°56' W 090°00'0 0.0
2016-Apr-26 22:30N 29°56' W 090°00'0 0.0
2016-Apr-26 21:24N 29°56' W 090°00'0 0.0
2016-Apr-26 20:30N 29°56' W 090°00'0 0.0
2016-Apr-26 19:30N 29°56' W 090°00'0 0.0
2016-Apr-26 18:30N 29°56' W 090°00'0 0.0
2016-Apr-26 17:24N 29°56' W 090°00'0 0.0
2016-Apr-26 16:33N 29°56' W 090°00'0 0.0
2016-Apr-26 15:33N 29°56' W 090°00'0 0.0
2016-Apr-26 14:30N 29°56' W 090°00'0 0.0
2016-Apr-26 13:30N 29°56' W 090°00'0 0.1
2016-Apr-26 12:30N 29°56' W 090°00'0 0.0
2016-Apr-26 11:33N 29°56' W 090°00'0 0.0
2016-Apr-26 10:33N 29°56' W 090°00'0 0.0
2016-Apr-26 09:33N 29°56' W 090°00'0 0.0
2016-Apr-26 08:33N 29°56' W 090°00'0 0.0
2016-Apr-26 07:33N 29°56' W 090°00'0 0.0
2016-Apr-26 06:33N 29°56' W 090°00'0 0.0
2016-Apr-26 05:33N 29°56' W 090°00'0 0.0
2016-Apr-26 04:30N 29°56' W 090°00'0 0.0
2016-Apr-26 03:33N 29°56' W 090°00'0 0.0
2016-Apr-26 02:33N 29°56' W 090°00'0 0.0
2016-Apr-26 01:33N 29°56' W 090°00'0 0.0
2016-Apr-26 00:33N 29°56' W 090°00'0 0.2
2016-Apr-25 23:33N 29°56' W 089°60'2 1.7
2016-Apr-25 22:33N 29°55' W 089°58'1 0.6
2016-Apr-25 21:28N 29°55' W 089°59'0 0.0
2016-Apr-25 20:31N 29°55' W 089°59'0 0.0
2016-Apr-25 19:31N 29°55' W 089°59'0 0.0
2016-Apr-25 18:31N 29°55' W 089°59'0 0.0
2016-Apr-25 17:31N 29°55' W 089°59'0 0.0
2016-Apr-25 16:31N 29°55' W 089°59'0 0.0
2016-Apr-25 15:28N 29°55' W 089°59'0 0.0
2016-Apr-25 14:31N 29°55' W 089°59'3 2.7
2016-Apr-25 13:33N 29°52' W 090°01'3 3.1
2016-Apr-25 12:33N 29°50' W 090°03'28 3.4
2016-Apr-25 04:16N 29°34' W 090°30'4 5.4
2016-Apr-25 03:32N 29°34' W 090°34'2 1.6
2016-Apr-25 02:30N 29°35' W 090°36'0 0.0
2016-Apr-25 01:33N 29°35' W 090°36'5 5.0
2016-Apr-25 00:33N 29°36' W 090°41'1 0.6
2016-Apr-24 23:33N 29°37' W 090°42'0 0.0
2016-Apr-24 22:33N 29°37' W 090°42'0 0.0
2016-Apr-24 21:30N 29°37' W 090°42'0 0.0
2016-Apr-24 20:33N 29°37' W 090°42'0 0.0
2016-Apr-24 19:33N 29°37' W 090°42'0 0.0
2016-Apr-24 18:30N 29°37' W 090°42'0 0.0
2016-Apr-24 17:33N 29°37' W 090°42'0 0.0
2016-Apr-24 16:33N 29°37' W 090°42'0 0.0
2016-Apr-24 15:33N 29°37' W 090°42'0 0.0
2016-Apr-24 14:33N 29°37' W 090°42'0 0.0
2016-Apr-24 13:33N 29°37' W 090°42'0 0.0
2016-Apr-24 12:33N 29°37' W 090°42'5 4.8
2016-Apr-24 11:33N 29°35' W 090°37'  
Track history (hours):
 
Tides and Currents Weather Stations Pressure Air Temp Water Temp Dewpoint Dewpoint Depression Visibility Wind Speed Wind Dir Waves Ship Positions

Boo Sonier

Owner: LeBeouf Bros. Towing, LLC, Houma, LA. More information available from US FCC via Universal Licensing System and Coast Guard Vessel Documentation Center.

Last reported at 2016-May-04 11:32 UTC. Time now 2016-May-04 11:37 UTC.
Position N 29°34' W 090°36'.

Length 21 m.

Type: Tug. MMSI: 367524420.

Date/timePositionNaut miles runAvg speedWind from/ knotsBaromVisibWave heightAir tempDewpointWater temp
2016-May-04 11:32N 29°34' W 090°36'0 0.0
2016-May-04 10:32N 29°34' W 090°36'0 0.0
2016-May-04 09:33N 29°34' W 090°36'1 0.7
2016-May-04 08:33N 29°34' W 090°35'27 5.3
2016-May-04 03:31N 29°46' W 090°07'5 4.8
2016-May-04 02:33N 29°49' W 090°04'6 5.9
2016-May-04 01:33N 29°54' W 089°60'2 1.9
2016-May-04 00:33N 29°55' W 089°58'0 0.1
2016-May-03 23:31N 29°55' W 089°58'0 0.0
2016-May-03 22:31N 29°55' W 089°58'0 0.0
2016-May-03 21:25N 29°55' W 089°58'0 0.4
2016-May-03 20:33N 29°55' W 089°58'4 4.1
2016-May-03 19:30N 29°58' W 090°02'1 0.7
2016-May-03 18:31N 29°59' W 090°01'1 1.0
2016-May-03 17:34N 29°60' W 090°01'2 0.7
2016-May-03 15:24N 29°60' W 089°59'0 0.0
2016-May-03 14:24N 29°60' W 089°59'0 0.0
2016-May-03 08:27N 29°60' W 089°59'0 0.0
2016-May-03 06:33N 29°60' W 089°59'  
2016-Apr-27 07:19N 30°00' W 089°56'4 4.7
2016-Apr-27 06:31N 29°60' W 090°00'1 1.3
2016-Apr-27 05:33N 29°59' W 090°01'1 1.2
2016-Apr-27 04:31N 29°58' W 090°02'1 0.6
2016-Apr-27 03:32N 29°57' W 090°01'1 1.4
2016-Apr-27 02:30N 29°56' W 090°00'0 0.0
2016-Apr-27 01:30N 29°56' W 090°00'0 0.0
2016-Apr-27 00:24N 29°56' W 090°00'0 0.0
2016-Apr-26 23:30N 29°56' W 090°00'0 0.0
2016-Apr-26 22:30N 29°56' W 090°00'0 0.0
2016-Apr-26 21:24N 29°56' W 090°00'0 0.0
2016-Apr-26 20:30N 29°56' W 090°00'0 0.0
2016-Apr-26 19:30N 29°56' W 090°00'0 0.0
2016-Apr-26 18:30N 29°56' W 090°00'0 0.0
2016-Apr-26 17:24N 29°56' W 090°00'0 0.0
2016-Apr-26 16:33N 29°56' W 090°00'0 0.0
2016-Apr-26 15:33N 29°56' W 090°00'0 0.0
2016-Apr-26 14:30N 29°56' W 090°00'0 0.0
2016-Apr-26 13:30N 29°56' W 090°00'0 0.1
2016-Apr-26 12:30N 29°56' W 090°00'0 0.0
2016-Apr-26 11:33N 29°56' W 090°00'0 0.0
2016-Apr-26 10:33N 29°56' W 090°00'0 0.0
2016-Apr-26 09:33N 29°56' W 090°00'0 0.0
2016-Apr-26 08:33N 29°56' W 090°00'0 0.0
2016-Apr-26 07:33N 29°56' W 090°00'0 0.0
2016-Apr-26 06:33N 29°56' W 090°00'0 0.0
2016-Apr-26 05:33N 29°56' W 090°00'0 0.0
2016-Apr-26 04:30N 29°56' W 090°00'0 0.0
2016-Apr-26 03:33N 29°56' W 090°00'0 0.0
2016-Apr-26 02:33N 29°56' W 090°00'0 0.0
2016-Apr-26 01:33N 29°56' W 090°00'0 0.0
2016-Apr-26 00:33N 29°56' W 090°00'0 0.2
2016-Apr-25 23:33N 29°56' W 089°60'2 1.7
2016-Apr-25 22:33N 29°55' W 089°58'1 0.6
2016-Apr-25 21:28N 29°55' W 089°59'0 0.0
2016-Apr-25 20:31N 29°55' W 089°59'0 0.0
2016-Apr-25 19:31N 29°55' W 089°59'0 0.0
2016-Apr-25 18:31N 29°55' W 089°59'0 0.0
2016-Apr-25 17:31N 29°55' W 089°59'0 0.0
2016-Apr-25 16:31N 29°55' W 089°59'0 0.0
2016-Apr-25 15:28N 29°55' W 089°59'0 0.0
2016-Apr-25 14:31N 29°55' W 089°59'3 2.7
2016-Apr-25 13:33N 29°52' W 090°01'3 3.1
2016-Apr-25 12:33N 29°50' W 090°03'28 3.4
2016-Apr-25 04:16N 29°34' W 090°30'4 5.4
2016-Apr-25 03:32N 29°34' W 090°34'2 1.6
2016-Apr-25 02:30N 29°35' W 090°36'0 0.0
2016-Apr-25 01:33N 29°35' W 090°36'5 5.0
2016-Apr-25 00:33N 29°36' W 090°41'1 0.6
2016-Apr-24 23:33N 29°37' W 090°42'0 0.0
2016-Apr-24 22:33N 29°37' W 090°42'0 0.0
2016-Apr-24 21:30N 29°37' W 090°42'0 0.0
2016-Apr-24 20:33N 29°37' W 090°42'0 0.0
2016-Apr-24 19:33N 29°37' W 090°42'0 0.0
2016-Apr-24 18:30N 29°37' W 090°42'0 0.0
2016-Apr-24 17:33N 29°37' W 090°42'0 0.0
2016-Apr-24 16:33N 29°37' W 090°42'0 0.0
2016-Apr-24 15:33N 29°37' W 090°42'0 0.0
2016-Apr-24 14:33N 29°37' W 090°42'0 0.0
2016-Apr-24 13:33N 29°37' W 090°42'0 0.0
2016-Apr-24 12:33N 29°37' W 090°42'5 4.8
2016-Apr-24 11:33N 29°35' W 090°37'  

Dump ship's entire track history